Alys Beach, Florida
Current Conditions -  °F | °C
As of 1:53 AM on Tuesday 27 Jan 2015 (Local Time) from KECP Reporting Station
Clear Clear  
Wind Chill: 36°   Ceiling: Unl
Heat Index: 39°   Visibility: NA
Dew Point: 34°   Wind: 5mph
Humidity: 82%   Direction: 320°NW
Pressure: 30.03"   Gusts: NA
Location:  30.2534°N, 85.9486°W
Report Text: KECP 270753Z AUTO 32004KT CLR 04/01 A3003 RMK AO2 SLP179 T00390011 $
Loading
Personal Weather Stations






























Interactive Weather Map New forecast layout! Learn more

10-Day Weather Forecast

Advertisements
Track Severe Weather on mobile